Flight Track Log - Related Links

Times and Time Zones

All times are in EDT time to prevent confusion due to time zone crossing. See the CES2343 flight status page for this flight to view local times or setup timezone preferences in your user account.

Time Position Orientation Groundspeed Altitude Reporting Facility
EDT Latitude Longitude Course Direction KTS MPH feet Rate Location/Type
Sat 08:28:00 AM 33.5163 107.5353 228° Southwest  Level Estimated
Sat 08:29:00 AM 33.4442 107.4429 227° Southwest  Level Estimated
Sat 08:30:00 AM 33.3721 107.3506 227° Southwest  Level Estimated
Sat 08:31:00 AM 33.2999 107.2584 227° Southwest  Level Estimated
Sat 08:32:00 AM 33.2276 107.1664 227° Southwest  Level Estimated
Sat 08:33:00 AM 33.1552 107.0745 227° Southwest  Level Estimated
Sat 08:34:00 AM 33.0828 106.9828 227° Southwest  Level Estimated
Sat 08:35:00 AM 33.0103 106.8913 227° Southwest  Level Estimated
Sat 08:36:00 AM 32.9377 106.7999 227° Southwest  Level Estimated
Sat 08:37:00 AM 32.8651 106.7086 227° Southwest  Level Estimated
Sat 08:38:00 AM 32.7924 106.6175 227° Southwest  Level Estimated
Sat 08:39:00 AM 32.7197 106.5266 226° Southwest  Level Estimated
Sat 08:40:00 AM 32.6468 106.4358 226° Southwest  Level Estimated
Sat 08:41:00 AM 32.5739 106.3451 226° Southwest  Level Estimated
Sat 08:42:00 AM 32.5010 106.2546 226° Southwest  Level Estimated
Sat 08:43:00 AM 32.4280 106.1643 226° Southwest  Level Estimated
Sat 08:44:00 AM 32.3549 106.0740 226° Southwest  Level Estimated
Sat 08:45:00 AM 32.2817 105.9840 226° Southwest  Level Estimated
Sat 08:46:00 AM 32.2085 105.8941 226° Southwest  Level Estimated
Sat 08:47:00 AM 32.1352 105.8043 226° Southwest  Level Estimated
Sat 08:48:00 AM 32.0619 105.7146 226° Southwest  Level Estimated
Sat 08:49:00 AM 31.9885 105.6251 226° Southwest  Level Estimated
Sat 08:50:00 AM 31.9150 105.5358 226° Southwest  Level Estimated
Sat 08:51:00 AM 31.8415 105.4466 226° Southwest  Level Estimated
Sat 08:52:00 AM 31.7679 105.3575 226° Southwest  Level Estimated
Sat 08:53:00 AM 31.6943 105.2686 226° Southwest  Level Estimated
Sat 08:54:00 AM 31.6205 105.1798 226° Southwest  Level Estimated
Sat 08:55:00 AM 31.5468 105.0912 226° Southwest  Level Estimated
Sat 08:56:00 AM 31.4729 105.0027 226° Southwest  Level Estimated
Sat 08:57:00 AM 31.3990 104.9143 226° Southwest  Level Estimated
Sat 08:58:00 AM 31.3251 104.8261 226° Southwest  Level Estimated
Sat 08:59:00 AM 31.2511 104.7380 226° Southwest  Level Estimated
Sat 09:00:00 AM 31.1770 104.6501 225° Southwest  Level Estimated
Sat 09:01:00 AM 31.1028 104.5623 225° Southwest  Level Estimated
Sat 09:02:00 AM 31.0286 104.4746 225° Southwest  Level Estimated
Sat 09:03:00 AM 30.9544 104.3870 225° Southwest  Level Estimated
Sat 09:04:00 AM 30.8801 104.2997 225° Southwest  Level Estimated
Sat 09:05:00 AM 30.8057 104.2124 225° Southwest  Level Estimated
Sat 09:06:00 AM 30.7313 104.1253 225° Southwest  Level Estimated
Sat 09:07:00 AM 30.6568 104.0383 225° Southwest  Level Estimated
Sat 09:08:00 AM 30.5822 103.9514 225° Southwest  Level Estimated
Sat 09:09:00 AM 30.5785 103.9471 225° Southwest  Level Estimated
Sat 09:10:00 AM 30.5785 103.9471 240° Southwest  Level Estimated
Sat 09:11:00 AM 30.5785 103.9471 240° Southwest  Level Estimated
Sat 09:12:00 AM 30.5785 103.9471 240° Southwest  Level Estimated
Sat 09:13:00 AM 30.5785 103.9471 240° Southwest  Level Estimated
Sat 09:14:00 AM 30.5785 103.9471 240° Southwest  Level Estimated
Sat 09:15:00 AM 30.5785 103.9471 240° Southwest  Level Estimated
Sat 09:16:00 AM 30.5785 103.9471 240° Southwest  Level Estimated
Sat 09:17:00 AM 30.5785 103.9471 240° Southwest  Level Estimated
Sat 09:18:00 AM 30.5785 103.9471 240° Southwest  Level Estimated
Sat 09:19:00 AM 30.5785 103.9471 240° Southwest  Level Estimated
Sat 09:20:00 AM 30.5785 103.9471 240° Southwest  Level Estimated
Sat 09:21:00 AM 30.5785 103.9471 240° Southwest  Level Estimated
Sat 09:22:00 AM 30.5785 103.9471 240° Southwest  Level Estimated
Sat 09:23:00 AM 30.5785 103.9471 240° Southwest  Level Estimated
Sat 09:24:00 AM 30.5785 103.9471 240° Southwest  Level Estimated

Login

Don't have an account? Register now (free) for customized features, flight alerts, and more!